Time;durP1;ratioP1;P1;durP2;ratioP2;P2;SDS_P1;SDS_P2;PMS_P1;PMS_P2;Temp;Humidity;BMP_temperature;BMP_pressure;BME280_temperature;BME280_humidity;BME280_pressure;Samples;Min_cycle;Max_cycle;Signal;HPM_P1;HPM_P2
2021/07/04 00:02:11;;;;;;;21.50;18.08;;;14.80;99.90;;;;;;4918705;29;20053;-82
2021/07/04 00:04:38;;;;;;;26.10;18.50;;;14.80;99.90;;;;;;4918918;29;20039;-81
2021/07/04 00:07:05;;;;;;;18.92;16.92;;;14.90;99.90;;;;;;4921342;28;20043;-83
2021/07/04 00:09:32;;;;;;;21.35;18.58;;;14.70;99.90;;;;;;4954185;28;20039;-80
2021/07/04 00:11:59;;;;;;;18.40;16.27;;;14.60;99.90;;;;;;4937399;28;20639;-83
2021/07/04 00:14:26;;;;;;;21.85;16.98;;;14.70;99.90;;;;;;4934636;29;20063;-81
2021/07/04 00:16:53;;;;;;;20.20;16.23;;;14.50;99.90;;;;;;4919248;29;20055;-78
2021/07/04 00:19:21;;;;;;;19.67;16.77;;;14.40;99.90;;;;;;4933946;28;20086;-82
2021/07/04 00:21:48;;;;;;;23.13;17.33;;;14.20;99.90;;;;;;4947330;28;20079;-81
2021/07/04 00:24:15;;;;;;;21.88;17.00;;;14.20;99.90;;;;;;4951763;28;20042;-81
2021/07/04 00:26:41;;;;;;;21.52;16.58;;;14.20;99.90;;;;;;4937275;28;20058;-81
2021/07/04 00:29:08;;;;;;;23.75;16.67;;;14.20;99.90;;;;;;4942214;28;20258;-82
2021/07/04 00:31:35;;;;;;;22.77;16.77;;;14.30;99.90;;;;;;4986262;28;20053;-81
2021/07/04 00:34:02;;;;;;;20.30;17.08;;;14.60;99.90;;;;;;4934411;28;20070;-80
2021/07/04 00:36:30;;;;;;;21.88;16.73;;;14.80;99.90;;;;;;4970711;28;20097;-81
2021/07/04 00:38:56;;;;;;;19.90;17.25;;;14.90;99.90;;;;;;4953174;28;20069;-81
2021/07/04 00:41:24;;;;;;;20.45;17.23;;;14.80;99.90;;;;;;4935654;29;20110;-81
2021/07/04 00:43:52;;;;;;;19.65;16.33;;;14.80;99.90;;;;;;4921166;29;20128;-82
2021/07/04 00:46:19;;;;;;;25.67;18.30;;;14.80;99.90;;;;;;4937851;28;20130;-82
2021/07/04 00:48:46;;;;;;;18.83;16.48;;;14.90;99.90;;;;;;4971555;28;20125;-83
2021/07/04 00:51:14;;;;;;;19.73;17.00;;;15.10;99.90;;;;;;4932854;28;20047;-81
2021/07/04 00:53:41;;;;;;;20.88;17.77;;;15.20;99.90;;;;;;4960312;28;20047;-81
2021/07/04 00:56:09;;;;;;;21.17;18.88;;;15.30;99.90;;;;;;4919505;28;20328;-80
2021/07/04 00:58:37;;;;;;;21.88;18.67;;;15.50;99.90;;;;;;4959024;28;20094;-81
2021/07/04 01:01:07;;;;;;;20.13;18.02;;;15.40;99.90;;;;;;4953051;28;20074;-81
2021/07/04 01:03:34;;;;;;;21.20;18.60;;;15.30;99.90;;;;;;4940674;28;20149;-82
2021/07/04 01:06:01;;;;;;;20.10;17.45;;;15.30;99.90;;;;;;4954615;28;20071;-81
2021/07/04 01:08:28;;;;;;;21.50;17.20;;;15.30;99.90;;;;;;4959718;28;20120;-82
2021/07/04 01:10:56;;;;;;;19.60;17.42;;;15.30;99.90;;;;;;4934647;29;20051;-81
2021/07/04 01:13:29;;;;;;;21.30;16.52;;;15.30;99.90;;;;;;4937094;29;20051;-82
2021/07/04 01:16:06;;;;;;;20.60;18.33;;;15.40;99.90;;;;;;4923272;28;20044;-82
2021/07/04 01:18:33;;;;;;;19.42;17.27;;;15.30;99.90;;;;;;4955077;28;20109;-83
2021/07/04 01:21:05;;;;;;;22.73;17.08;;;15.30;99.90;;;;;;4962965;28;20106;-81
2021/07/04 01:23:38;;;;;;;;;;;15.30;99.90;;;;;;4971012;28;20077;-81
2021/07/04 01:26:07;;;;;;;22.98;17.75;;;15.30;99.90;;;;;;4977868;28;19953;-84
2021/07/04 01:28:35;;;;;;;19.40;17.35;;;15.20;99.90;;;;;;4942390;28;20101;-79
2021/07/04 01:31:07;;;;;;;23.13;17.88;;;15.30;99.90;;;;;;4942568;29;20142;-80
2021/07/04 01:33:37;;;;;;;20.55;17.77;;;15.30;99.90;;;;;;4946756;29;20062;-80
2021/07/04 01:36:12;;;;;;;20.95;18.00;;;15.50;99.90;;;;;;4965319;28;20683;-79
2021/07/04 01:38:42;;;;;;;22.45;19.13;;;15.70;99.90;;;;;;4954381;28;20062;-81
2021/07/04 01:41:12;;;;;;;25.33;18.23;;;15.70;99.90;;;;;;4948010;28;20139;-81
2021/07/04 01:43:39;;;;;;;22.92;19.00;;;15.60;99.90;;;;;;4938141;29;20051;-81
2021/07/04 01:46:07;;;;;;;20.42;18.23;;;15.50;99.90;;;;;;4960655;28;20067;-82
2021/07/04 01:48:35;;;;;;;22.83;18.73;;;15.50;99.90;;;;;;4963782;28;20051;-81
2021/07/04 01:51:06;;;;;;;20.42;17.90;;;15.60;99.90;;;;;;4975951;28;20053;-79
2021/07/04 01:53:36;;;;;;;23.15;18.23;;;15.50;99.90;;;;;;4969088;28;20051;-83
2021/07/04 01:56:11;;;;;;;23.90;18.38;;;15.60;99.90;;;;;;4963236;28;20042;-80
2021/07/04 01:58:46;;;;;;;18.23;16.25;;;15.50;99.90;;;;;;4976004;28;20111;-80
2021/07/04 02:01:19;;;;;;;20.17;17.05;;;15.40;99.90;;;;;;4974704;29;20046;-81
2021/07/04 02:03:46;;;;;;;20.95;16.33;;;15.40;99.90;;;;;;4966536;28;20053;-82
2021/07/04 02:06:18;;;;;;;17.45;15.65;;;15.30;99.90;;;;;;4982025;28;20077;-82
2021/07/04 02:08:48;;;;;;;24.10;17.95;;;15.50;99.90;;;;;;4958477;28;20096;-83
2021/07/04 02:11:16;;;;;;;19.67;16.25;;;15.60;99.90;;;;;;4994801;28;20051;-83
2021/07/04 02:13:49;;;;;;;18.52;16.48;;;15.70;99.90;;;;;;4977767;28;20118;-84
2021/07/04 02:16:28;;;;;;;20.15;16.65;;;15.80;99.90;;;;;;4959385;28;20054;-82
2021/07/04 02:19:11;;;;;;;21.35;17.08;;;15.80;99.90;;;;;;4960836;28;20142;-80
2021/07/04 02:22:03;;;;;;;21.23;17.02;;;15.80;99.90;;;;;;4945401;28;20035;-81
2021/07/04 02:24:49;;;;;;;22.63;16.70;;;15.70;99.90;;;;;;4960078;28;20883;-82
2021/07/04 02:27:34;;;;;;;20.70;18.60;;;15.80;99.90;;;;;;4943988;29;20572;-83
2021/07/04 02:30:10;;;;;;;21.63;19.25;;;15.90;99.90;;;;;;4955757;28;20082;-81
2021/07/04 02:32:39;;;;;;;23.17;20.10;;;15.90;99.90;;;;;;4945024;28;20142;-83
2021/07/04 02:35:08;;;;;;;22.63;19.30;;;15.90;99.90;;;;;;4935040;28;20729;-81
2021/07/04 02:37:36;;;;;;;21.17;18.40;;;16.00;99.90;;;;;;4940305;29;20059;-82
2021/07/04 02:40:19;;;;;;;21.45;17.27;;;16.20;99.90;;;;;;4961730;28;20122;-84
2021/07/04 02:42:49;;;;;;;20.42;17.38;;;16.10;99.90;;;;;;4967760;28;20128;-82
2021/07/04 02:45:17;;;;;;;22.45;17.45;;;16.10;99.90;;;;;;4960434;28;20114;-82
2021/07/04 02:47:47;;;;;;;20.23;17.40;;;16.20;99.90;;;;;;4974369;28;20115;-82
2021/07/04 02:50:20;;;;;;;21.40;19.08;;;16.00;99.90;;;;;;5021194;28;20161;-82
2021/07/04 02:52:52;;;;;;;20.75;17.48;;;15.80;99.90;;;;;;4961895;28;20106;-82
2021/07/04 02:55:21;;;;;;;21.90;17.10;;;15.90;99.90;;;;;;4943504;28;20061;-81
2021/07/04 02:57:48;;;;;;;22.75;18.15;;;16.10;99.90;;;;;;4991059;28;20087;-82
2021/07/04 03:00:21;;;;;;;22.02;17.73;;;15.90;99.90;;;;;;4993800;28;20027;-83
2021/07/04 03:02:49;;;;;;;19.55;17.05;;;15.90;99.90;;;;;;4974679;28;20057;-80
2021/07/04 03:05:17;;;;;;;22.50;18.25;;;16.00;99.90;;;;;;4951355;28;20077;-80
2021/07/04 03:07:45;;;;;;;21.10;17.30;;;16.00;99.90;;;;;;4956151;29;20051;-80
2021/07/04 03:10:16;;;;;;;21.00;17.27;;;16.00;99.90;;;;;;4958998;28;20043;-82
2021/07/04 03:12:46;;;;;;;21.77;19.05;;;16.00;99.90;;;;;;4940256;29;20051;-81
2021/07/04 03:15:15;;;;;;;21.38;17.88;;;16.00;99.90;;;;;;4941208;28;20073;-80
2021/07/04 03:17:45;;;;;;;20.10;17.40;;;16.00;99.90;;;;;;4950042;28;20044;-83
2021/07/04 03:20:14;;;;;;;20.38;18.08;;;15.90;99.90;;;;;;4941856;28;20058;-82
2021/07/04 03:22:44;;;;;;;19.17;16.77;;;15.80;99.90;;;;;;4943855;28;20053;-82
2021/07/04 03:25:18;;;;;;;18.33;15.85;;;15.80;99.90;;;;;;4958245;28;20043;-81
2021/07/04 03:27:47;;;;;;;20.52;15.55;;;15.70;99.90;;;;;;4969331;28;20058;-83
2021/07/04 03:30:19;;;;;;;21.48;17.83;;;15.90;99.90;;;;;;4948066;28;20075;-82
2021/07/04 03:32:48;;;;;;;17.77;15.88;;;15.90;99.90;;;;;;4934452;28;20065;-82
2021/07/04 03:35:18;;;;;;;20.77;16.27;;;15.90;99.90;;;;;;4992517;28;20050;-85
2021/07/04 03:37:48;;;;;;;21.65;16.33;;;15.80;99.90;;;;;;4958363;28;20070;-83
2021/07/04 03:40:18;;;;;;;23.17;16.55;;;15.90;99.90;;;;;;4955021;28;20050;-81
2021/07/04 03:42:51;;;;;;;23.40;16.95;;;16.00;99.90;;;;;;4951898;28;20413;-82
2021/07/04 03:45:22;;;;;;;19.92;16.83;;;16.20;99.90;;;;;;4938761;28;20055;-82
2021/07/04 03:47:50;;;;;;;17.73;15.93;;;16.10;99.90;;;;;;4959365;28;20126;-82
2021/07/04 03:50:23;;;;;;;19.35;15.38;;;16.10;99.90;;;;;;4952423;28;20074;-82
2021/07/04 03:52:54;;;;;;;17.13;15.05;;;16.10;99.90;;;;;;4936253;29;20047;-81
2021/07/04 03:55:23;;;;;;;19.42;16.10;;;16.00;99.90;;;;;;4978338;28;20051;-80
2021/07/04 03:57:54;;;;;;;18.20;15.73;;;16.00;99.90;;;;;;4988941;28;20050;-81
2021/07/04 04:00:36;;;;;;;17.52;15.65;;;15.90;99.90;;;;;;4954466;28;20047;-83
2021/07/04 04:03:09;;;;;;;20.05;15.70;;;15.90;99.90;;;;;;4934719;29;20063;-82
2021/07/04 04:05:43;;;;;;;18.10;15.07;;;16.00;99.90;;;;;;4966342;28;20169;-82
2021/07/04 04:08:10;;;;;;;17.70;15.02;;;16.00;99.90;;;;;;4934814;29;20043;-82
2021/07/04 04:10:42;;;;;;;18.50;15.98;;;16.10;99.90;;;;;;4951692;28;20046;-83
2021/07/04 04:13:13;;;;;;;20.75;15.57;;;16.10;99.90;;;;;;4946292;28;20533;-82
2021/07/04 04:15:41;;;;;;;17.60;15.18;;;16.10;99.90;;;;;;4940569;28;20034;-82
2021/07/04 04:18:11;;;;;;;17.83;14.82;;;16.10;99.90;;;;;;4952959;28;20045;-80
2021/07/04 04:20:39;;;;;;;18.35;14.90;;;16.20;99.90;;;;;;4936397;29;20043;-80
2021/07/04 04:23:09;;;;;;;17.48;15.10;;;16.20;99.90;;;;;;4935794;29;20065;-81
2021/07/04 04:25:39;;;;;;;16.90;14.57;;;16.20;99.90;;;;;;4937439;29;20050;-81
2021/07/04 04:28:08;;;;;;;17.92;14.95;;;16.30;99.90;;;;;;4922195;28;20044;-82
2021/07/04 04:30:38;;;;;;;18.30;14.00;;;16.30;99.90;;;;;;4980041;28;20497;-81
2021/07/04 04:33:08;;;;;;;18.92;14.57;;;16.40;99.90;;;;;;4941636;28;20039;-83
2021/07/04 04:35:37;;;;;;;18.77;14.88;;;16.50;99.90;;;;;;4932756;29;20043;-82
2021/07/04 04:38:04;;;;;;;18.52;14.95;;;16.60;99.90;;;;;;4949238;28;20469;-80
2021/07/04 04:40:31;;;;;;;17.60;14.60;;;16.50;99.90;;;;;;4932443;29;20032;-83
2021/07/04 04:42:58;;;;;;;16.67;14.65;;;16.60;99.90;;;;;;4947905;28;20054;-83
2021/07/04 04:45:25;;;;;;;16.92;15.07;;;16.60;99.90;;;;;;4951731;28;20053;-81
2021/07/04 04:47:52;;;;;;;16.30;14.57;;;16.40;99.90;;;;;;4966369;28;20050;-81
2021/07/04 04:50:19;;;;;;;16.02;14.18;;;16.60;99.90;;;;;;4982611;28;20093;-83
2021/07/04 04:52:46;;;;;;;15.52;13.80;;;16.60;99.90;;;;;;4946535;28;20674;-82
2021/07/04 04:55:13;;;;;;;17.05;13.88;;;16.70;99.90;;;;;;4970678;28;20051;-83
2021/07/04 04:57:41;;;;;;;15.55;13.70;;;16.70;99.90;;;;;;4922519;29;20039;-83
2021/07/04 05:00:10;;;;;;;17.05;14.05;;;16.90;99.90;;;;;;4954182;28;20047;-82
2021/07/04 05:02:42;;;;;;;21.67;14.73;;;16.90;99.90;;;;;;4975043;28;20094;-82
2021/07/04 05:05:11;;;;;;;18.30;13.85;;;16.90;99.90;;;;;;4944958;28;20034;-81
2021/07/04 05:07:38;;;;;;;21.35;13.73;;;16.90;99.90;;;;;;4934346;28;20118;-82
2021/07/04 05:10:07;;;;;;;16.85;13.80;;;16.90;99.90;;;;;;4953990;28;20554;-82
2021/07/04 05:12:33;;;;;;;21.30;13.93;;;17.00;99.90;;;;;;4943638;28;20043;-81
2021/07/04 05:15:00;;;;;;;18.45;14.10;;;16.70;99.90;;;;;;4971639;28;20047;-81
2021/07/04 05:17:27;;;;;;;16.13;13.68;;;16.90;99.90;;;;;;4932429;29;20047;-82
2021/07/04 05:19:54;;;;;;;17.98;16.10;;;17.00;99.90;;;;;;4967683;28;20097;-83
2021/07/04 05:22:21;;;;;;;17.65;13.77;;;17.10;99.90;;;;;;4959914;28;20043;-83
2021/07/04 05:24:48;;;;;;;16.90;14.02;;;17.30;99.90;;;;;;4966955;28;20054;-81
2021/07/04 05:27:15;;;;;;;15.30;13.70;;;17.40;99.90;;;;;;4941031;28;20047;-80
2021/07/04 05:29:41;;;;;;;16.50;14.75;;;17.50;99.90;;;;;;4948896;28;20114;-81
2021/07/04 05:32:13;;;;;;;17.08;14.55;;;17.60;99.90;;;;;;4956920;28;20117;-80
2021/07/04 05:34:40;;;;;;;17.85;13.98;;;17.70;99.90;;;;;;4965134;28;20081;-82
2021/07/04 05:37:07;;;;;;;15.40;13.88;;;17.80;99.90;;;;;;4934039;29;20079;-81
2021/07/04 05:39:34;;;;;;;17.38;14.65;;;17.90;99.90;;;;;;4925698;28;20098;-82
2021/07/04 05:42:01;;;;;;;15.38;13.65;;;17.90;99.90;;;;;;4958542;28;20131;-81
2021/07/04 05:44:28;;;;;;;15.98;13.32;;;18.10;99.90;;;;;;4970494;28;20047;-82
2021/07/04 05:46:55;;;;;;;16.95;14.77;;;18.20;99.90;;;;;;4952221;28;20039;-82
2021/07/04 05:49:22;;;;;;;15.73;14.00;;;18.30;99.90;;;;;;4950481;28;20132;-82
2021/07/04 05:51:49;;;;;;;15.85;14.23;;;18.40;99.90;;;;;;4973595;28;20058;-82
2021/07/04 05:54:16;;;;;;;15.15;13.65;;;18.50;99.90;;;;;;4945087;28;20053;-81
2021/07/04 05:56:43;;;;;;;14.25;12.75;;;18.60;99.90;;;;;;4948054;28;20051;-83
2021/07/04 05:59:10;;;;;;;15.02;12.95;;;18.70;99.90;;;;;;4946643;28;20428;-81
2021/07/04 06:01:37;;;;;;;14.60;13.13;;;18.70;99.90;;;;;;4964654;28;20047;-82
2021/07/04 06:04:06;;;;;;;12.73;11.32;;;18.90;99.90;;;;;;4933032;29;20081;-82
2021/07/04 06:06:33;;;;;;;13.70;12.38;;;19.00;99.90;;;;;;4935958;29;20043;-81
2021/07/04 06:09:00;;;;;;;14.45;13.00;;;19.20;99.90;;;;;;4968002;28;20051;-81
2021/07/04 06:11:28;;;;;;;14.35;12.93;;;19.20;99.90;;;;;;4955888;28;20070;-82
2021/07/04 06:13:55;;;;;;;14.45;12.93;;;19.40;99.90;;;;;;5001824;28;20070;-82
2021/07/04 06:16:22;;;;;;;13.95;12.55;;;19.50;99.90;;;;;;4938482;28;20111;-82
2021/07/04 06:18:49;;;;;;;15.38;13.50;;;19.60;99.90;;;;;;4926146;28;20043;-83
2021/07/04 06:21:16;;;;;;;15.95;14.27;;;19.70;99.90;;;;;;4938875;28;20100;-83
2021/07/04 06:23:43;;;;;;;16.23;14.52;;;19.80;99.90;;;;;;4952850;28;20043;-82
2021/07/04 06:26:10;;;;;;;15.40;14.00;;;19.90;99.90;;;;;;4959202;28;20460;-83
2021/07/04 06:28:41;;;;;;;14.30;13.00;;;20.10;99.90;;;;;;4938174;28;20115;-82
2021/07/04 06:31:08;;;;;;;14.93;13.57;;;20.20;99.90;;;;;;4937603;28;20047;-81
2021/07/04 06:33:34;;;;;;;16.95;14.80;;;20.30;99.90;;;;;;4955098;28;20039;-80
2021/07/04 06:36:02;;;;;;;16.05;14.27;;;20.30;99.90;;;;;;4972626;28;20118;-81
2021/07/04 06:38:28;;;;;;;15.13;13.65;;;20.40;99.90;;;;;;4955153;28;20049;-80
2021/07/04 06:40:55;;;;;;;16.23;14.73;;;20.30;99.90;;;;;;4939968;28;20086;-82
2021/07/04 06:43:22;;;;;;;15.90;14.50;;;20.50;99.90;;;;;;4941398;28;20141;-80
2021/07/04 06:45:53;;;;;;;17.83;16.10;;;20.80;99.90;;;;;;4987486;28;20043;-81
2021/07/04 06:48:20;;;;;;;17.75;16.23;;;21.00;99.90;;;;;;4949471;29;20412;-78
2021/07/04 06:50:48;;;;;;;19.52;17.38;;;21.10;99.90;;;;;;4953030;28;20129;-81
2021/07/04 06:53:14;;;;;;;17.65;16.05;;;20.80;99.90;;;;;;4970267;28;20708;-80
2021/07/04 06:55:41;;;;;;;17.08;15.38;;;20.50;99.90;;;;;;4954856;28;20387;-81
2021/07/04 06:58:08;;;;;;;18.70;17.00;;;20.60;99.90;;;;;;4968908;28;20063;-81
2021/07/04 07:00:35;;;;;;;17.58;16.08;;;20.90;99.90;;;;;;4938296;28;20509;-81
2021/07/04 07:03:02;;;;;;;18.75;17.08;;;20.90;99.90;;;;;;4939051;28;20050;-81
2021/07/04 07:05:29;;;;;;;18.50;16.88;;;21.10;99.90;;;;;;4956672;28;20043;-83
2021/07/04 07:07:56;;;;;;;17.98;16.27;;;21.30;99.90;;;;;;4932974;29;20048;-81
2021/07/04 07:10:23;;;;;;;17.90;16.48;;;21.70;99.90;;;;;;4965842;28;20714;-81
2021/07/04 07:12:50;;;;;;;18.70;17.10;;;22.10;99.90;;;;;;4935064;29;20051;-79
2021/07/04 07:15:23;;;;;;;17.58;15.93;;;22.70;99.90;;;;;;4974627;28;20841;-81
2021/07/04 07:17:50;;;;;;;16.88;15.55;;;23.30;99.90;;;;;;4988147;28;20138;-81
2021/07/04 07:20:17;;;;;;;16.35;15.05;;;23.60;99.90;;;;;;4961027;28;20053;-80
2021/07/04 07:22:44;;;;;;;18.60;16.92;;;23.40;99.90;;;;;;4958808;28;20045;-80
2021/07/04 07:25:18;;;;;;;17.92;16.45;;;23.60;99.90;;;;;;4942020;28;20067;-79
2021/07/04 07:27:49;;;;;;;17.52;16.02;;;24.00;99.90;;;;;;4937612;28;20042;-81
2021/07/04 07:30:17;;;;;;;18.13;16.63;;;24.10;99.90;;;;;;4937491;28;20689;-82
2021/07/04 07:32:44;;;;;;;17.02;15.77;;;24.30;99.90;;;;;;4959883;28;20062;-84
2021/07/04 07:35:12;;;;;;;16.98;15.57;;;23.70;99.90;;;;;;4995352;28;20047;-83
2021/07/04 07:37:40;;;;;;;18.98;17.23;;;23.90;99.90;;;;;;4965273;28;20034;-79
2021/07/04 07:40:09;;;;;;;17.27;15.95;;;24.50;99.90;;;;;;4956593;28;20047;-82
2021/07/04 07:42:47;;;;;;;17.98;16.58;;;24.80;99.90;;;;;;4938725;29;20040;-81
2021/07/04 07:45:15;;;;;;;17.52;16.33;;;25.10;99.90;;;;;;4939401;28;20457;-83
2021/07/04 07:47:42;;;;;;;17.70;16.40;;;25.40;99.90;;;;;;4949804;29;20481;-82
2021/07/04 07:50:11;;;;;;;16.85;15.75;;;25.60;99.90;;;;;;4971330;28;20134;-81
2021/07/04 07:52:37;;;;;;;17.60;16.05;;;25.40;99.90;;;;;;4946174;28;20296;-82
2021/07/04 07:55:07;;;;;;;16.85;15.65;;;25.60;99.90;;;;;;4938246;29;20043;-82
2021/07/04 07:57:37;;;;;;;16.77;15.63;;;25.80;99.90;;;;;;4954821;28;20079;-81
2021/07/04 08:00:07;;;;;;;16.67;15.40;;;25.60;99.90;;;;;;4971603;28;20409;-81
2021/07/04 08:02:41;;;;;;;15.93;14.82;;;25.40;99.90;;;;;;4943547;28;20047;-81
2021/07/04 08:05:13;;;;;;;14.95;14.05;;;25.20;99.90;;;;;;4942037;28;20097;-81
2021/07/04 08:07:40;;;;;;;15.85;14.75;;;25.50;99.90;;;;;;4940249;28;20058;-80
2021/07/04 08:10:09;;;;;;;16.45;15.23;;;25.30;99.90;;;;;;4970930;28;20645;-80
2021/07/04 08:12:36;;;;;;;15.50;14.50;;;24.80;99.90;;;;;;4949281;28;20054;-80
2021/07/04 08:15:04;;;;;;;15.00;14.00;;;24.80;99.90;;;;;;4934065;29;20805;-80
2021/07/04 08:17:31;;;;;;;14.85;13.88;;;24.70;99.90;;;;;;4950279;28;20107;-81
2021/07/04 08:19:59;;;;;;;14.88;13.77;;;25.00;99.90;;;;;;4921917;29;20047;-81
2021/07/04 08:22:26;;;;;;;15.57;14.48;;;25.50;99.90;;;;;;4969517;28;20074;-80
2021/07/04 08:24:53;;;;;;;14.93;14.02;;;25.40;99.90;;;;;;4948667;29;20031;-81
2021/07/04 08:27:23;;;;;;;14.32;13.32;;;25.30;99.90;;;;;;4932788;28;20055;-80
2021/07/04 08:29:50;;;;;;;14.23;13.32;;;24.60;99.90;;;;;;4939013;28;20043;-80
2021/07/04 08:32:17;;;;;;;15.43;14.23;;;24.20;99.90;;;;;;4938596;28;20075;-83
2021/07/04 08:34:44;;;;;;;16.25;15.10;;;24.10;99.90;;;;;;4946660;28;20130;-78
2021/07/04 08:37:11;;;;;;;15.82;14.65;;;24.60;99.90;;;;;;4921197;28;20082;-81
2021/07/04 08:39:38;;;;;;;16.95;15.75;;;24.60;99.90;;;;;;4934565;29;20039;-81
2021/07/04 08:42:05;;;;;;;17.30;16.08;;;24.00;99.90;;;;;;4933636;29;20067;-82
2021/07/04 08:44:32;;;;;;;17.08;15.73;;;23.90;99.90;;;;;;4983130;28;20047;-81
2021/07/04 08:46:59;;;;;;;17.05;15.77;;;24.20;99.90;;;;;;4966509;28;20055;-81
2021/07/04 08:49:27;;;;;;;17.65;16.45;;;24.20;99.90;;;;;;4919366;29;20078;-81
2021/07/04 08:51:54;;;;;;;18.25;16.92;;;24.40;99.90;;;;;;4939941;28;20070;-82
2021/07/04 08:54:21;;;;;;;17.80;16.58;;;24.50;99.90;;;;;;4940362;29;20058;-82
2021/07/04 08:56:50;;;;;;;18.35;16.92;;;24.50;99.90;;;;;;4935160;29;20040;-83
2021/07/04 08:59:17;;;;;;;17.65;16.15;;;24.90;99.90;;;;;;4937651;29;20047;-81
2021/07/04 09:01:49;;;;;;;17.65;16.45;;;24.60;99.90;;;;;;4952372;28;20073;-83
2021/07/04 09:04:20;;;;;;;17.92;16.63;;;24.60;99.90;;;;;;4935017;29;20052;-83
2021/07/04 09:06:48;;;;;;;18.73;17.35;;;24.50;99.90;;;;;;4951130;28;20055;-80
2021/07/04 09:09:32;;;;;;;18.38;16.98;;;24.40;99.90;;;;;;4935074;29;20053;-82
2021/07/04 09:12:05;;;;;;;18.67;17.38;;;24.10;99.90;;;;;;4982651;28;20055;-81
2021/07/04 09:14:46;;;;;;;19.13;17.35;;;23.90;99.90;;;;;;4966147;28;20501;-82
2021/07/04 09:17:34;;;;;;;19.58;18.08;;;23.90;99.90;;;;;;4924960;28;20074;-82
2021/07/04 09:20:07;;;;;;;19.75;18.33;;;23.90;99.90;;;;;;4923288;29;20051;-80
2021/07/04 09:22:39;;;;;;;19.58;18.27;;;23.70;99.90;;;;;;4941845;28;20051;-81
2021/07/04 09:25:22;;;;;;;19.00;17.80;;;23.70;99.90;;;;;;4916493;29;20051;-82
2021/07/04 09:28:10;;;;;;;18.50;17.30;;;23.60;99.90;;;;;;4948689;29;20673;-82
2021/07/04 09:30:40;;;;;;;18.40;17.05;;;23.70;99.90;;;;;;4950628;28;20043;-82
2021/07/04 09:33:14;;;;;;;18.70;17.48;;;23.40;99.90;;;;;;4952401;29;20043;-80
2021/07/04 09:35:54;;;;;;;19.00;17.50;;;23.10;99.90;;;;;;4951761;28;20066;-81
2021/07/04 09:38:21;;;;;;;19.20;17.42;;;23.40;99.90;;;;;;4965973;28;20317;-80
2021/07/04 09:40:49;;;;;;;18.75;17.45;;;23.60;99.90;;;;;;4971206;28;20043;-84
2021/07/04 09:43:18;;;;;;;20.25;18.75;;;23.70;99.90;;;;;;4923054;29;20070;-80
2021/07/04 09:46:04;;;;;;;20.27;18.58;;;23.60;99.90;;;;;;4923004;29;20097;-80
2021/07/04 09:48:33;;;;;;;19.10;17.63;;;23.40;99.90;;;;;;4923923;29;20110;-81
2021/07/04 09:51:09;;;;;;;18.88;17.55;;;23.40;99.90;;;;;;4937210;28;20493;-79
2021/07/04 09:53:42;;;;;;;19.75;18.10;;;23.30;99.90;;;;;;4981935;28;20047;-81
2021/07/04 09:56:19;;;;;;;18.77;17.45;;;23.20;99.90;;;;;;4941591;29;20047;-82
2021/07/04 09:58:48;;;;;;;18.92;17.55;;;23.30;99.90;;;;;;4924361;29;20039;-82
2021/07/04 10:01:39;;;;;;;18.92;17.55;;;23.40;99.90;;;;;;4956519;28;20051;-83
2021/07/04 10:04:23;;;;;;;18.45;17.23;;;23.40;99.90;;;;;;4965103;28;20040;-83
2021/07/04 10:06:51;;;;;;;18.98;17.42;;;23.30;99.90;;;;;;4930381;29;20099;-81
2021/07/04 10:09:20;;;;;;;17.85;16.50;;;23.50;99.90;;;;;;4967851;28;20047;-82
2021/07/04 10:11:48;;;;;;;18.45;17.20;;;23.40;99.90;;;;;;4988795;28;20039;-81
2021/07/04 10:14:16;;;;;;;18.38;17.08;;;23.50;99.90;;;;;;4927227;29;20110;-82
2021/07/04 10:16:45;;;;;;;17.35;15.77;;;23.60;99.90;;;;;;4918696;29;20070;-79
2021/07/04 10:19:18;;;;;;;17.98;16.80;;;23.60;99.90;;;;;;4935105;29;20394;-83
2021/07/04 10:21:48;;;;;;;18.42;16.83;;;23.90;99.90;;;;;;4939558;28;20049;-79
2021/07/04 10:24:15;;;;;;;18.33;17.10;;;23.90;99.90;;;;;;4954037;28;20078;-80
2021/07/04 10:26:43;;;;;;;18.55;17.15;;;24.40;99.90;;;;;;4950817;28;20219;-79
2021/07/04 10:29:12;;;;;;;18.27;16.77;;;24.70;99.90;;;;;;4992810;28;20612;-78
2021/07/04 10:31:39;;;;;;;18.42;16.88;;;25.00;99.90;;;;;;4944867;28;20812;-79
2021/07/04 10:34:13;;;;;;;17.88;16.70;;;25.10;99.90;;;;;;4923555;29;20047;-79
2021/07/04 10:36:59;;;;;;;17.65;16.25;;;25.10;99.90;;;;;;4944250;28;20058;-81
2021/07/04 10:39:28;;;;;;;17.40;16.17;;;25.00;99.90;;;;;;4996105;28;20581;-83
2021/07/04 10:42:05;;;;;;;17.38;16.13;;;25.40;99.90;;;;;;4968033;28;20534;-80
2021/07/04 10:44:38;;;;;;;18.50;17.20;;;26.10;99.90;;;;;;4972266;28;20042;-82
2021/07/04 10:47:24;;;;;;;17.58;16.27;;;26.30;99.90;;;;;;4976971;28;20076;-80
2021/07/04 10:50:06;;;;;;;16.85;15.45;;;26.70;99.90;;;;;;4972784;28;20058;-81
2021/07/04 10:52:33;;;;;;;16.02;14.93;;;26.90;99.90;;;;;;4950903;28;20038;-82
2021/07/04 10:55:03;;;;;;;15.50;14.45;;;27.30;99.90;;;;;;4961185;28;20119;-80
2021/07/04 10:57:49;;;;;;;17.55;16.15;;;27.50;99.90;;;;;;4987026;28;20077;-82
2021/07/04 11:00:39;;;;;;;17.67;16.48;;;27.40;99.90;;;;;;4968881;28;20054;-81
2021/07/04 11:03:26;;;;;;;18.55;17.35;;;27.30;99.90;;;;;;4949732;28;20101;-83
2021/07/04 11:05:53;;;;;;;18.20;16.90;;;27.60;99.90;;;;;;4944140;28;20047;-81
2021/07/04 11:08:24;;;;;;;18.13;16.63;;;26.80;99.90;;;;;;4951821;29;20126;-83
2021/07/04 11:10:52;;;;;;;16.98;15.88;;;26.80;99.90;;;;;;4953677;28;20137;-81
2021/07/04 11:13:19;;;;;;;17.70;16.15;;;27.20;99.90;;;;;;4969414;28;20043;-81
2021/07/04 11:15:51;;;;;;;17.73;16.42;;;27.10;99.90;;;;;;4952554;28;20047;-84
2021/07/04 11:18:20;;;;;;;17.40;15.90;;;27.30;99.90;;;;;;4961683;28;20066;-82
2021/07/04 11:20:49;;;;;;;16.55;15.45;;;27.10;99.90;;;;;;4983358;28;20046;-80
2021/07/04 11:23:19;;;;;;;17.38;16.13;;;26.90;99.90;;;;;;4930579;28;20039;-82
2021/07/04 11:25:48;;;;;;;16.50;15.30;;;27.00;99.90;;;;;;4962082;28;20607;-83
2021/07/04 11:28:21;;;;;;;17.63;16.42;;;27.10;99.90;;;;;;4936716;29;20556;-80
2021/07/04 11:30:48;;;;;;;18.20;16.80;;;26.10;99.90;;;;;;4937675;29;20047;-80
2021/07/04 11:33:21;;;;;;;17.58;16.27;;;25.80;99.90;;;;;;4937542;29;20047;-80
2021/07/04 11:35:49;;;;;;;16.48;15.35;;;25.40;99.90;;;;;;4952683;28;20114;-83
2021/07/04 11:38:18;;;;;;;16.42;15.18;;;25.50;99.90;;;;;;4926340;28;20053;-81
2021/07/04 11:40:45;;;;;;;16.58;15.48;;;25.80;99.90;;;;;;4958260;28;20039;-82
2021/07/04 11:43:17;;;;;;;16.30;15.07;;;25.00;99.90;;;;;;4947527;28;20060;-81
2021/07/04 11:45:53;;;;;;;15.63;14.52;;;24.50;99.90;;;;;;4917641;29;20048;-79
2021/07/04 11:48:22;;;;;;;15.65;14.38;;;24.70;99.90;;;;;;4923213;28;20055;-85
2021/07/04 11:50:52;;;;;;;14.57;13.57;;;24.80;99.90;;;;;;4953359;28;20042;-84
2021/07/04 11:53:20;;;;;;;14.55;13.45;;;25.00;99.90;;;;;;4939704;28;20046;-81
2021/07/04 11:56:01;;;;;;;12.90;12.00;;;25.20;99.90;;;;;;4968762;28;20471;-80
2021/07/04 11:58:30;;;;;;;13.80;12.70;;;25.50;99.90;;;;;;4986402;28;20133;-82
2021/07/04 12:00:58;;;;;;;13.98;12.98;;;25.40;99.90;;;;;;4955397;28;20050;-81
2021/07/04 12:03:26;;;;;;;15.00;13.70;;;25.30;99.90;;;;;;4940193;28;20042;-83
2021/07/04 12:06:05;;;;;;;14.27;13.30;;;24.50;99.90;;;;;;4924508;28;20047;-83
2021/07/04 12:08:52;;;;;;;13.80;12.90;;;24.70;99.90;;;;;;4956594;28;20121;-81
2021/07/04 12:11:37;;;;;;;14.75;13.63;;;24.90;99.90;;;;;;4936051;29;20448;-80
2021/07/04 12:14:24;;;;;;;16.05;14.70;;;25.20;99.90;;;;;;4939738;28;20460;-81
2021/07/04 12:16:53;;;;;;;14.65;13.57;;;25.40;99.90;;;;;;4960921;28;20135;-80
2021/07/04 12:19:27;;;;;;;15.25;14.10;;;25.60;99.90;;;;;;4963010;28;20137;-83
2021/07/04 12:21:56;;;;;;;14.95;13.75;;;25.70;99.90;;;;;;4949328;28;20039;-81
2021/07/04 12:24:33;;;;;;;14.90;13.73;;;26.20;99.90;;;;;;4968915;28;20081;-82
2021/07/04 12:27:00;;;;;;;15.23;14.13;;;26.10;99.90;;;;;;4953276;28;20048;-83
2021/07/04 12:29:27;;;;;;;14.65;13.63;;;26.60;99.90;;;;;;4949697;28;20047;-80
2021/07/04 12:32:02;;;;;;;15.65;14.55;;;26.90;99.90;;;;;;4959038;28;20098;-81
2021/07/04 12:34:32;;;;;;;15.13;14.13;;;27.00;99.90;;;;;;4974376;28;20572;-83
2021/07/04 12:37:00;;;;;;;14.85;13.80;;;26.80;99.90;;;;;;4938130;28;20065;-82
2021/07/04 12:39:31;;;;;;;15.18;13.98;;;26.60;99.90;;;;;;4969054;28;20521;-81
2021/07/04 12:41:59;;;;;;;14.80;13.75;;;26.00;99.90;;;;;;4953070;28;20043;-83
2021/07/04 12:44:26;;;;;;;15.07;14.00;;;25.80;99.90;;;;;;4977593;28;20257;-82